Hlavní strana
METAR-TAF:

METAR-TAF

Letiště :

Namsos, Norsko

zeměpisná šířka: 64-28N, zeměpisná délka: 011-35E, výška: 0 m

Aktuální stav počasí

Zpráva byla vytvořena před 6 hodinami a 43 minutami, v 20:50 UTC
Východoseverovýchodní vítr 10 kt
Teplota 2°C
Vlhkost vzduchu 75%
Tlak 1017 hPa
Viditelnost 10 km a více
Oblačno až skoro zataženo ve výšce 2400 ft
slabé sněžení

METAR: ENNM 172050Z 07010KT 9999 -SN BKN024 02/M02 Q1017

Čas: 04:33 (03:33 UTC)


TAF: chybějící

Stav a předpovědi počasí z více než 4 000 letišť (zprávy METAR a TAF).

Červené a žluté tečky na mapě představují dostupné meteorologické stanice.

Když kurzor umístíte na tečku, zobrazí se název stanice.

Pak kliknutím zobrazíte stav a předpověď počasí.

Chcete-li změnit mapu, kliknutím na zelené tlačítko se znaménkem +mapu přiblížíte, kliknutím na zelené tlačítko se znaménkem – mapu oddálíte a kliknutím na zelené šipky přejdete na sousední mapy.


METAR-TAF: